Time;durP1;ratioP1;P1;durP2;ratioP2;P2;SDS_P1;SDS_P2;PMS_P1;PMS_P2;Temp;Humidity;BMP_temperature;BMP_pressure;BME280_temperature;BME280_humidity;BME280_pressure;Samples;Min_cycle;Max_cycle;Signal;HPM_P1;HPM_P2
2023/04/02 00:26:40;;;;;;;;;;;12.40;86.30;;;;;;6122893;23;19906;-96
2023/04/02 00:29:11;;;;;;;;;;;12.40;85.70;;;;;;6104818;23;19965;-96
2023/04/02 01:10:45;;;;;;;;;;;12.20;87.00;;;;;;6128661;23;19945;-96
2023/04/02 01:13:45;;;;;;;;;;;12.10;87.00;;;;;;6122583;23;19913;-96
2023/04/02 01:16:35;;;;;;;;;;;12.10;87.10;;;;;;6099646;23;19933;-96
2023/04/02 01:19:25;;;;;;;;;;;12.10;87.30;;;;;;6125192;23;19917;-96
2023/04/02 01:22:11;;;;;;;;;;;12.00;87.60;;;;;;6124967;23;19937;-96
2023/04/02 01:24:43;;;;;;;;;;;11.90;88.20;;;;;;6124877;23;19896;-96
2023/04/02 01:27:22;;;;;;;;;;;11.90;88.80;;;;;;6125014;23;19909;-96
2023/04/02 02:35:52;;;;;;;;;;;11.60;89.50;;;;;;6129964;23;19912;-96
2023/04/02 02:38:59;;;;;;;;;;;11.70;89.30;;;;;;6124876;23;19902;-96
2023/04/02 02:41:43;;;;;;;;;;;11.60;89.10;;;;;;6100895;23;19930;-96
2023/04/02 02:44:31;;;;;;;;;;;11.60;89.20;;;;;;6125947;23;19929;-96
2023/04/02 02:47:08;;;;;;;;;;;11.60;89.40;;;;;;6126131;23;19937;-96
2023/04/02 02:49:42;;;;;;;;;;;11.60;89.20;;;;;;6123767;23;19919;-96
2023/04/02 02:52:21;;;;;;;;;;;11.60;89.10;;;;;;6126037;23;19897;-96
2023/04/02 02:54:52;;;;;;;;;;;11.60;89.10;;;;;;6101267;23;19949;-96
2023/04/02 02:57:27;;;;;;;;;;;11.60;89.00;;;;;;6125748;23;19934;-96
2023/04/02 03:00:00;;;;;;;;;;;11.60;89.10;;;;;;6125912;23;19918;-96
2023/04/02 03:02:29;;;;;;;;;;;11.60;89.10;;;;;;6096465;23;19929;-96
2023/04/02 03:05:06;;;;;;;;;;;11.60;89.10;;;;;;6096989;23;19949;-96
2023/04/02 03:07:45;;;;;;;;;;;11.60;89.10;;;;;;6075186;23;19910;-96
2023/04/02 03:10:21;;;;;;;;;;;11.60;89.10;;;;;;6072382;23;19894;-96
2023/04/02 03:13:08;;;;;;;;;;;11.50;89.20;;;;;;6065725;23;20325;-96
2023/04/02 03:15:55;;;;;;;;;;;11.50;89.40;;;;;;6071929;23;19913;-96
2023/04/02 03:18:36;;;;;;;;;;;11.50;89.30;;;;;;6083995;23;19914;-96
2023/04/02 03:21:15;;;;;;;;;;;11.40;89.60;;;;;;6071780;23;19957;-96
2023/04/02 03:23:58;;;;;;;;;;;11.40;89.50;;;;;;6096709;23;19963;-96
2023/04/02 03:26:34;;;;;;;;;;;11.40;89.40;;;;;;6072164;23;19904;-96
2023/04/02 03:29:17;;;;;;;;;;;11.40;89.40;;;;;;6071631;23;19909;-96
2023/04/02 03:46:15;;;;;;;;;;;11.20;89.30;;;;;;6143768;23;19927;-96
2023/04/02 03:48:49;;;;;;;;;;;11.20;89.30;;;;;;6154629;23;19913;-96
2023/04/02 03:51:35;;;;;;;;;;;11.10;89.40;;;;;;6104872;23;19915;-96
2023/04/02 03:54:04;;;;;;;;;;;11.10;89.40;;;;;;6151673;23;19936;-96
2023/04/02 03:56:40;;;;;;;;;;;11.00;89.50;;;;;;6154246;23;19909;-96
2023/04/02 03:59:26;;;;;;;;;;;11.00;89.70;;;;;;6128579;23;19929;-96
2023/04/02 04:02:18;;;;;;;;;;;11.00;89.90;;;;;;6128244;23;19905;-96
2023/04/02 04:04:53;;;;;;;;;;;10.90;90.10;;;;;;6128732;23;19969;-96
2023/04/02 04:07:31;;;;;;;;;;;10.90;90.20;;;;;;6153322;23;19904;-96
2023/04/02 04:10:01;;;;;;;;;;;10.90;90.30;;;;;;6129135;23;19919;-96
2023/04/02 04:12:36;;;;;;;;;;;11.00;90.30;;;;;;6151483;23;19900;-96
2023/04/02 04:15:35;;;;;;;;;;;11.00;90.20;;;;;;6128588;23;19905;-96
2023/04/02 04:18:40;;;;;;;;;;;10.90;89.70;;;;;;6067448;23;19916;-96
2023/04/02 04:21:14;;;;;;;;;;;10.80;89.60;;;;;;6008396;24;19914;-96
2023/04/02 04:23:49;;;;;;;;;;;10.70;89.50;;;;;;6007842;24;19907;-96
2023/04/02 04:26:33;;;;;;;;;;;10.60;89.40;;;;;;6093255;23;19897;-96
2023/04/02 04:29:25;;;;;;;;;;;10.60;89.30;;;;;;6128648;23;19905;-96
2023/04/02 04:32:20;;;;;;;;;;;10.60;89.10;;;;;;6153725;23;19925;-96
2023/04/02 04:34:52;;;;;;;;;;;10.60;89.10;;;;;;6079942;23;19952;-96
2023/04/02 04:37:20;;;;;;;;;;;10.50;89.30;;;;;;6126703;23;19945;-96
2023/04/02 04:39:53;;;;;;;;;;;10.40;89.60;;;;;;6151886;23;19913;-96
2023/04/02 04:42:25;;;;;;;;;;;10.40;89.90;;;;;;6151992;23;19905;-96
2023/04/02 04:45:04;;;;;;;;;;;10.40;90.10;;;;;;6152481;23;19915;-96
2023/04/02 04:47:38;;;;;;;;;;;10.40;90.30;;;;;;6153056;23;19909;-96
2023/04/02 04:50:12;;;;;;;;;;;10.40;90.40;;;;;;6128317;23;19896;-96
2023/04/02 04:52:39;;;;;;;;;;;10.40;90.50;;;;;;6127807;23;19889;-96
2023/04/02 04:55:41;;;;;;;;;;;10.40;90.10;;;;;;6128077;23;19928;-96
2023/04/02 04:58:28;;;;;;;;;;;10.40;90.30;;;;;;6066475;23;19905;-96
2023/04/02 05:01:12;;;;;;;;;;;10.40;90.40;;;;;;6108450;23;19924;-96
2023/04/02 05:03:57;;;;;;;;;;;10.40;89.80;;;;;;6153096;23;19909;-96
2023/04/02 05:06:32;;;;;;;;;;;10.40;88.80;;;;;;6127782;23;19901;-96
2023/04/02 05:09:38;;;;;;;;;;;10.20;88.80;;;;;;6153523;23;19889;-96
2023/04/02 05:12:10;;;;;;;;;;;10.20;88.80;;;;;;6064866;23;19912;-96
2023/04/02 05:14:44;;;;;;;;;;;10.20;88.80;;;;;;6128118;23;19905;-96
2023/04/02 05:17:26;;;;;;;;;;;10.20;88.90;;;;;;6127622;23;19990;-96
2023/04/02 05:20:15;;;;;;;;;;;10.30;89.20;;;;;;6127648;23;19919;-96
2023/04/02 05:22:49;;;;;;;;;;;10.40;89.80;;;;;;6127383;23;19905;-96
2023/04/02 05:25:23;;;;;;;;;;;10.40;90.20;;;;;;6127623;23;19905;-96
2023/04/02 05:27:56;;;;;;;;;;;10.40;90.40;;;;;;6127672;23;19905;-97
2023/04/02 05:30:23;;;;;;;;;;;10.40;90.50;;;;;;6127896;23;19911;-96
2023/04/02 05:33:06;;;;;;;;;;;10.40;90.00;;;;;;6128010;23;19925;-96
2023/04/02 05:35:37;;;;;;;;;;;10.40;89.90;;;;;;6104347;23;19892;-96
2023/04/02 05:38:06;;;;;;;;;;;10.40;89.20;;;;;;6149060;23;19889;-96
2023/04/02 05:40:39;;;;;;;;;;;10.40;89.10;;;;;;6128379;23;19956;-96
2023/04/02 05:43:09;;;;;;;;;;;10.30;88.70;;;;;;6120790;23;19905;-96
2023/04/02 05:45:37;;;;;;;;;;;10.30;88.80;;;;;;6126483;23;19917;-96
2023/04/02 05:48:19;;;;;;;;;;;10.20;88.80;;;;;;6152729;23;19908;-96
2023/04/02 05:50:52;;;;;;;;;;;10.10;88.90;;;;;;6153720;23;19948;-96
2023/04/02 05:53:42;;;;;;;;;;;10.10;89.10;;;;;;6150293;23;19957;-96
2023/04/02 05:56:24;;;;;;;;;;;10.00;89.60;;;;;;6154681;23;19893;-96
2023/04/02 08:38:20;;;;;;;;;;;14.40;78.40;;;;;;6118929;23;19928;-95
2023/04/02 08:40:47;;;;;;;;;;;14.50;77.90;;;;;;6073758;23;19910;-95
2023/04/02 08:43:28;;;;;;;;;;;14.60;77.00;;;;;;6098467;23;19916;-95
2023/04/02 08:46:05;;;;;;;;;;;14.70;76.30;;;;;;6072696;23;19992;-95
2023/04/02 08:48:32;;;;;;;;;;;14.80;76.20;;;;;;6098761;23;19905;-95
2023/04/02 08:50:58;;;;;;;;;;;14.90;73.80;;;;;;6100324;23;19906;-95
2023/04/02 08:53:25;;;;;;;;;;;14.90;73.00;;;;;;6098965;23;19917;-96
2023/04/02 08:55:58;;;;;;;;;;;15.00;72.90;;;;;;6098158;23;19905;-95
2023/04/02 08:58:27;;;;;;;;;;;15.00;74.40;;;;;;6074044;23;19988;-95
2023/04/02 09:00:53;;;;;;;;;;;15.10;74.60;;;;;;6072464;23;20236;-95
2023/04/02 09:03:37;;;;;;;;;;;15.00;74.40;;;;;;6097867;23;19933;-95
2023/04/02 09:06:04;;;;;;;;;;;15.00;72.90;;;;;;6098772;23;19917;-94
2023/04/02 09:08:30;;;;;;;;;;;15.10;74.40;;;;;;6099328;23;19905;-96
2023/04/02 09:11:00;;;;;;;;;;;15.20;74.60;;;;;;6098266;23;19984;-95
2023/04/02 09:13:28;;;;;;;;;;;15.20;75.10;;;;;;6097799;23;19905;-94
2023/04/02 09:16:00;;;;;;;;;;;15.30;74.90;;;;;;6099481;23;19909;-96
2023/04/02 09:18:27;;;;;;;;;;;15.30;74.90;;;;;;6097625;23;19905;-96
2023/04/02 09:20:52;;;;;;;;;;;15.50;74.40;;;;;;6100120;23;19905;-96
2023/04/02 09:23:22;;;;;;;;;;;15.80;75.10;;;;;;6099666;23;20276;-96
2023/04/02 09:25:48;;;;;;;;;;;16.00;73.90;;;;;;6072936;23;19921;-96
2023/04/02 09:28:14;;;;;;;;;;;16.20;70.40;;;;;;6072692;23;19916;-95
2023/04/02 09:30:45;;;;;;;;;;;16.40;70.90;;;;;;6098451;23;19941;-96
2023/04/02 09:33:11;;;;;;;;;;;16.60;70.10;;;;;;6097790;23;19909;-95
2023/04/02 09:35:57;;;;;;;;;;;16.80;70.00;;;;;;6098482;23;19980;-95
2023/04/02 09:38:27;;;;;;;;;;;17.00;67.80;;;;;;6073949;23;20290;-96
2023/04/02 09:40:58;;;;;;;;;;;17.00;66.20;;;;;;6096203;23;19910;-96
2023/04/02 09:43:28;;;;;;;;;;;17.20;67.40;;;;;;6096286;23;19909;-96
2023/04/02 09:45:57;;;;;;;;;;;17.40;68.60;;;;;;6096310;23;19906;-96
2023/04/02 09:48:22;;;;;;;;;;;17.60;66.90;;;;;;6098728;23;20276;-96
2023/04/02 09:50:48;;;;;;;;;;;17.60;66.20;;;;;;6099505;23;19909;-96
2023/04/02 09:53:44;;;;;;;;;;;17.80;68.90;;;;;;6098299;23;19963;-96
2023/04/02 09:56:16;;;;;;;;;;;17.90;65.60;;;;;;6109697;23;19960;-96
2023/04/02 09:58:43;;;;;;;;;;;18.10;66.10;;;;;;6129750;23;19955;-96
2023/04/02 10:01:28;;;;;;;;;;;18.00;66.10;;;;;;6129513;23;19905;-96
2023/04/02 10:03:54;;;;;;;;;;;17.80;66.10;;;;;;6129590;23;19948;-95
2023/04/02 10:06:19;;;;;;;;;;;17.20;66.90;;;;;;6129914;23;19905;-96
2023/04/02 10:08:45;;;;;;;;;;;16.80;69.40;;;;;;6130078;23;20354;-96
2023/04/02 10:11:17;;;;;;;;;;;16.80;67.00;;;;;;6145123;23;19920;-96
2023/04/02 10:13:57;;;;;;;;;;;17.00;68.40;;;;;;6188440;23;19979;-96
2023/04/02 10:16:26;;;;;;;;;;;16.90;64.40;;;;;;6188382;23;19909;-95
2023/04/02 10:18:57;;;;;;;;;;;16.80;64.40;;;;;;6161602;23;19915;-95
2023/04/02 10:21:27;;;;;;;;;;;16.60;63.90;;;;;;6188432;23;20348;-95
2023/04/02 10:23:54;;;;;;;;;;;16.30;62.80;;;;;;6188349;23;19974;-95
2023/04/02 10:26:40;;;;;;;;;;;16.10;61.10;;;;;;6188554;23;20392;-95
2023/04/02 10:29:05;;;;;;;;;;;16.00;63.40;;;;;;6187326;23;19910;-95
2023/04/02 10:31:46;;;;;;;;;;;16.00;63.80;;;;;;6188765;23;19932;-96
2023/04/02 10:34:20;;;;;;;;;;;16.00;61.20;;;;;;6161799;23;19912;-96
2023/04/02 10:36:51;;;;;;;;;;;15.90;61.50;;;;;;6188669;23;19904;-95
2023/04/02 10:39:23;;;;;;;;;;;15.80;61.00;;;;;;6188617;23;19915;-95
2023/04/02 10:41:56;;;;;;;;;;;15.80;61.90;;;;;;6162355;23;19909;-95
2023/04/02 10:44:37;;;;;;;;;;;15.80;62.80;;;;;;6161707;23;19936;-95
2023/04/02 10:47:21;;;;;;;;;;;15.90;63.70;;;;;;6188445;23;19916;-95
2023/04/02 10:49:52;;;;;;;;;;;16.00;63.80;;;;;;6162870;23;19966;-95
2023/04/02 10:52:38;;;;;;;;;;;16.30;61.90;;;;;;6161273;23;19904;-95
2023/04/02 10:55:24;;;;;;;;;;;16.50;60.80;;;;;;6187975;23;19904;-96
2023/04/02 10:57:51;;;;;;;;;;;16.80;61.10;;;;;;6186676;23;20002;-96
2023/04/02 11:00:22;;;;;;;;;;;17.20;60.70;;;;;;6161028;23;20327;-96
2023/04/02 11:02:55;;;;;;;;;;;17.50;56.30;;;;;;6162111;23;19932;-96
2023/04/02 11:05:29;;;;;;;;;;;17.80;56.20;;;;;;6188679;23;19911;-96
2023/04/02 11:08:01;;;;;;;;;;;18.00;55.80;;;;;;6170681;23;20335;-95
2023/04/02 11:13:02;;;;;;;;;;;18.40;54.80;;;;;;6128468;23;20248;-96
2023/04/02 11:15:36;;;;;;;;;;;18.50;55.70;;;;;;6128839;23;19916;-96
2023/04/02 11:18:02;;;;;;;;;;;18.30;53.60;;;;;;6129047;23;19904;-95
2023/04/02 11:25:41;;;;;;;;;;;18.10;51.20;;;;;;6127623;23;19925;-96
2023/04/02 11:28:26;;;;;;;;;;;18.20;50.00;;;;;;6103467;23;19972;-95
2023/04/02 11:30:51;;;;;;;;;;;18.30;50.00;;;;;;6128352;23;19909;-96
2023/04/02 11:33:36;;;;;;;;;;;18.40;50.60;;;;;;6128781;23;19913;-96
2023/04/02 11:36:02;;;;;;;;;;;18.50;51.30;;;;;;6127982;23;19944;-96
2023/04/02 11:38:27;;;;;;;;;;;18.60;49.80;;;;;;6131942;23;19905;-96
2023/04/02 11:48:39;;;;;;;;;;;18.40;46.30;;;;;;6135215;23;19952;-96
2023/04/02 11:51:28;;;;;;;;;;;18.20;46.50;;;;;;6135834;23;19952;-96
2023/04/02 11:53:57;;;;;;;;;;;18.20;45.80;;;;;;6120784;23;19913;-96
2023/04/02 11:56:26;;;;;;;;;;;18.30;45.10;;;;;;6172092;23;19931;-96
2023/04/02 11:59:00;;;;;;;;;;;18.40;44.00;;;;;;6171977;23;19908;-96
2023/04/02 12:01:29;;;;;;;;;;;18.50;43.80;;;;;;6158410;23;19912;-96
2023/04/02 17:58:22;;;;;;;;;;;17.30;61.00;;;;;;6144893;23;19928;-96
2023/04/02 18:26:59;;;;;;;;;;;16.40;52.80;;;;;;6104904;23;19921;-94
2023/04/02 18:29:34;;;;;;;;;;;16.40;53.60;;;;;;6102739;23;20235;-95
2023/04/02 18:31:59;;;;;;;;;;;16.40;54.60;;;;;;6103188;23;19921;-95
2023/04/02 18:34:25;;;;;;;;;;;16.40;59.70;;;;;;6128823;23;19904;-95
2023/04/02 18:37:08;;;;;;;;;;;16.30;60.40;;;;;;6128830;23;19909;-96
2023/04/02 18:39:47;;;;;;;;;;;16.40;57.90;;;;;;6128604;23;19913;-94
2023/04/02 18:42:36;;;;;;;;;;;16.20;62.70;;;;;;6147056;23;19889;-96
2023/04/02 18:45:02;;;;;;;;;;;16.00;62.60;;;;;;6103163;23;19947;-95
2023/04/02 18:47:47;;;;;;;;;;;15.90;57.20;;;;;;6129078;23;20264;-95
2023/04/02 18:50:16;;;;;;;;;;;15.80;57.10;;;;;;6127438;23;19960;-95
2023/04/02 18:52:42;;;;;;;;;;;15.70;58.10;;;;;;6128639;23;19933;-94
2023/04/02 18:55:21;;;;;;;;;;;15.60;59.20;;;;;;6128683;23;20311;-95
2023/04/02 18:57:51;;;;;;;;;;;15.50;59.60;;;;;;6128664;23;19988;-95
2023/04/02 19:00:20;;;;;;;;;;;15.30;60.70;;;;;;6128885;23;19916;-94
2023/04/02 19:03:00;;;;;;;;;;;15.30;62.20;;;;;;6137793;23;19909;-96
2023/04/02 19:05:39;;;;;;;;;;;15.10;63.00;;;;;;6128917;23;19905;-94
2023/04/02 19:08:24;;;;;;;;;;;15.00;64.30;;;;;;6118308;23;19913;-96
2023/04/02 19:11:05;;;;;;;;;;;14.90;65.40;;;;;;6128102;23;19980;-94
2023/04/02 19:13:30;;;;;;;;;;;14.80;66.40;;;;;;6129074;23;19976;-94
2023/04/02 19:16:06;;;;;;;;;;;14.80;67.60;;;;;;6128135;23;19943;-94
2023/04/02 19:18:34;;;;;;;;;;;14.60;68.40;;;;;;6128722;23;19931;-94
2023/04/02 19:21:05;;;;;;;;;;;14.60;68.90;;;;;;6128811;23;19909;-94
2023/04/02 19:23:53;;;;;;;;;;;14.60;69.30;;;;;;6137279;23;19908;-96
2023/04/02 19:26:26;;;;;;;;;;;14.50;69.80;;;;;;6129940;23;19909;-96
2023/04/02 19:34:59;;;;;;;;;;;14.40;71.00;;;;;;6152428;23;19905;-96
2023/04/02 19:37:52;;;;;;;;;;;14.40;71.10;;;;;;6149911;23;19919;-96
2023/04/02 19:40:27;;;;;;;;;;;14.30;71.30;;;;;;6036220;23;19962;-96
2023/04/02 19:42:59;;;;;;;;;;;14.30;71.60;;;;;;6087369;23;20319;-96
2023/04/02 19:45:47;;;;;;;;;;;14.20;71.80;;;;;;6184713;23;19892;-96
2023/04/02 19:48:22;;;;;;;;;;;14.20;72.20;;;;;;6179562;23;19932;-96
2023/04/02 19:51:09;;;;;;;;;;;14.20;73.10;;;;;;6158680;23;19896;-96
